21D

Lake Elmo Airport

St Paul, Minnesota, USA
METAR K21D 151215Z AUTO 00000KT 10SM CLR 18/17 A2996 RMK AO2
Observed Flight Rules
Aug-15 @ 12:15 UTC (27 minutes ago) Visual Flight Rules
Visibility Clouds
10 miles
  • Clear skies
Temperatures Readings
Current 18°C / 64°F
Dewpoint 17°C / 63°F
Humidity 94%
Altimeter 29.96" Hg
Pressure 1015 hPa
Elevation 285
METAR K21D 151215Z AUTO 00000KT 10SM CLR 18/17 A2996 RMK AO2
Observed Flight Rules
Aug-15 @ 12:15 UTC
(27 minutes ago)
VFR
Clouds
  • Clear skies
Temperature Dewpoint
18°C / 64°F 17°C / 63°F
Humidity Altimeter Pressure
94% 29.96" Hg 1015 hPa